createdAt,value
2022-11-20T00:03:33.221Z,-0.95
2022-11-20T00:06:03.695Z,-0.78
2022-11-20T00:08:30.502Z,-0.54
2022-11-20T00:10:57.272Z,-0.80
2022-11-20T00:13:24.393Z,-0.86
2022-11-20T00:15:58.583Z,-0.84
2022-11-20T00:18:25.840Z,-0.75
2022-11-20T00:20:52.501Z,-0.89
2022-11-20T00:23:19.411Z,-0.91
2022-11-20T00:25:46.127Z,-0.74
2022-11-20T00:28:13.013Z,-0.51
2022-11-20T00:30:39.794Z,-0.50
2022-11-20T00:33:06.462Z,-0.56
2022-11-20T00:35:33.184Z,-0.68
2022-11-20T00:37:59.913Z,-0.86
2022-11-20T00:40:26.649Z,-0.74
2022-11-20T00:42:53.877Z,-0.90
2022-11-20T00:45:20.629Z,-0.74
2022-11-20T00:47:47.388Z,-0.96
2022-11-20T00:50:14.141Z,-0.61
2022-11-20T00:52:40.993Z,-0.53
2022-11-20T00:55:08.032Z,-0.63
2022-11-20T00:57:34.705Z,-0.77
2022-11-20T01:00:01.356Z,-0.79
2022-11-20T01:02:28.040Z,-0.78
2022-11-20T01:04:54.781Z,-0.76
2022-11-20T01:07:21.555Z,-1.00
2022-11-20T01:09:48.285Z,-0.84
2022-11-20T01:12:15.051Z,-0.98
2022-11-20T01:14:41.801Z,-0.98
2022-11-20T01:17:08.541Z,-0.84
2022-11-20T01:19:35.338Z,-0.86
2022-11-20T01:22:02.100Z,-0.83
2022-11-20T01:24:28.854Z,-0.83
2022-11-20T01:26:55.556Z,-0.89
2022-11-20T01:29:25.338Z,-0.85
2022-11-20T01:31:53.554Z,-0.69
2022-11-20T01:34:23.160Z,-0.70
2022-11-20T01:36:51.095Z,-0.79
2022-11-20T01:39:23.844Z,-0.58
2022-11-20T01:42:11.121Z,-0.61
2022-11-20T01:44:49.483Z,-0.62
2022-11-20T01:47:23.024Z,-0.80
2022-11-20T01:49:58.031Z,-1.00
2022-11-20T01:52:39.453Z,-0.62
2022-11-20T01:55:10.293Z,-0.51
2022-11-20T01:57:38.994Z,-0.46
2022-11-20T02:00:10.657Z,-0.54
2022-11-20T02:02:40.280Z,-0.52
2022-11-20T02:05:33.977Z,-0.61
2022-11-20T02:08:01.517Z,-0.83
2022-11-20T02:10:29.449Z,-0.64
2022-11-20T02:13:15.375Z,-0.74
2022-11-20T02:15:42.685Z,-0.68
2022-11-20T02:18:11.102Z,-0.75
2022-11-20T02:20:38.781Z,-0.69
2022-11-20T02:23:19.022Z,-0.63
2022-11-20T02:25:46.751Z,-0.55
2022-11-20T02:28:13.597Z,-0.64
2022-11-20T02:30:40.314Z,-0.62
2022-11-20T02:33:06.958Z,-0.84
2022-11-20T02:35:33.600Z,-0.66
2022-11-20T02:38:03.681Z,-0.70
2022-11-20T02:40:30.853Z,-0.61
2022-11-20T02:42:57.960Z,-0.64
2022-11-20T02:45:26.031Z,-0.51
2022-11-20T02:47:53.375Z,-0.64
2022-11-20T02:50:20.523Z,-0.53
2022-11-20T02:52:47.633Z,-0.57
2022-11-20T02:55:14.368Z,-0.35
2022-11-20T02:57:41.053Z,-0.41
2022-11-20T03:00:08.561Z,-0.44
2022-11-20T03:02:35.348Z,-0.55
2022-11-20T03:05:02.073Z,-0.49
2022-11-20T03:07:28.952Z,-0.49
2022-11-20T03:09:55.691Z,-0.52
2022-11-20T03:12:22.552Z,-0.46
2022-11-20T03:14:53.070Z,-0.75
2022-11-20T03:17:20.383Z,-0.69
2022-11-20T03:19:47.115Z,-0.47
2022-11-20T03:22:13.902Z,-0.44
2022-11-20T03:24:40.612Z,-0.54
2022-11-20T03:27:07.293Z,-0.40
2022-11-20T03:29:33.961Z,-0.36
2022-11-20T03:32:00.688Z,-0.50
2022-11-20T03:34:27.392Z,-0.65
2022-11-20T03:36:54.070Z,-0.68
2022-11-20T03:39:21.049Z,-0.71
2022-11-20T03:41:48.047Z,-0.65
2022-11-20T03:44:14.714Z,-0.58
2022-11-20T03:46:41.473Z,-0.53
2022-11-20T03:49:08.729Z,-0.59
2022-11-20T03:51:37.068Z,-0.51
2022-11-20T03:54:08.660Z,-0.52
2022-11-20T03:56:38.639Z,-0.66
2022-11-20T03:59:06.061Z,-0.59
2022-11-20T04:01:35.243Z,-0.70
2022-11-20T04:04:02.570Z,-0.73
2022-11-20T04:06:31.588Z,-0.55
2022-11-20T04:08:59.483Z,-0.55
2022-11-20T04:11:29.580Z,-0.50
2022-11-20T04:14:01.952Z,-0.42
2022-11-20T04:16:32.003Z,-0.40
2022-11-20T04:19:02.273Z,-0.43
2022-11-20T04:21:29.604Z,-0.36
2022-11-20T04:23:56.909Z,-0.51
2022-11-20T04:26:25.639Z,-0.56
2022-11-20T04:28:52.632Z,-0.56
2022-11-20T04:31:23.072Z,-0.45
2022-11-20T04:33:50.472Z,-0.39
2022-11-20T04:36:26.144Z,-0.30
2022-11-20T04:38:59.931Z,-0.52
2022-11-20T04:41:29.299Z,-0.52
2022-11-20T04:44:00.719Z,-0.57
2022-11-20T04:46:28.913Z,-0.48
2022-11-20T04:48:56.036Z,-0.39
2022-11-20T04:51:22.953Z,-0.44
2022-11-20T04:53:49.689Z,-0.61
2022-11-20T04:56:16.904Z,-0.63
2022-11-20T04:58:43.920Z,-0.89
2022-11-20T05:01:19.715Z,-0.64
2022-11-20T05:03:46.874Z,-0.75
2022-11-20T05:06:15.517Z,-0.63
2022-11-20T05:08:42.787Z,-0.71
2022-11-20T05:11:15.195Z,-0.73
2022-11-20T05:13:42.579Z,-0.87
2022-11-20T05:16:12.367Z,-0.81
2022-11-20T05:18:40.199Z,-0.72
2022-11-20T05:21:07.953Z,-0.59
2022-11-20T05:23:35.424Z,-0.72
2022-11-20T05:26:03.106Z,-0.68
2022-11-20T05:28:31.081Z,-0.79
2022-11-20T05:31:04.674Z,-0.79
2022-11-20T05:33:31.352Z,-0.75
2022-11-20T05:36:01.081Z,-0.75
2022-11-20T05:38:27.891Z,-0.61
2022-11-20T05:40:54.555Z,-0.56
2022-11-20T05:43:21.338Z,-0.58
2022-11-20T05:45:55.533Z,-0.54
2022-11-20T05:48:22.286Z,-0.62
2022-11-20T05:50:49.666Z,-0.54
2022-11-20T05:53:16.391Z,-0.73
2022-11-20T05:55:43.099Z,-0.85
2022-11-20T05:58:09.786Z,-0.93
2022-11-20T06:00:36.632Z,-0.88
2022-11-20T06:03:03.923Z,-0.88
2022-11-20T06:05:30.681Z,-0.76
2022-11-20T06:07:57.380Z,-0.68
2022-11-20T06:10:24.083Z,-0.73
2022-11-20T06:12:50.807Z,-0.62
2022-11-20T06:15:17.599Z,-0.78
2022-11-20T06:17:44.360Z,-0.64
2022-11-20T06:20:11.330Z,-0.64
2022-11-20T06:22:38.011Z,-0.63
2022-11-20T06:25:05.002Z,-0.62
2022-11-20T06:27:31.677Z,-0.64
2022-11-20T06:29:58.372Z,-0.66
2022-11-20T06:32:25.057Z,-0.74
2022-11-20T06:34:51.762Z,-0.67
2022-11-20T06:37:18.485Z,-0.61
2022-11-20T06:39:45.172Z,-0.83
2022-11-20T06:42:11.980Z,-0.58
2022-11-20T06:44:38.656Z,-0.57
2022-11-20T06:47:05.410Z,-0.44
2022-11-20T06:49:32.068Z,-0.53
2022-11-20T06:51:58.780Z,-0.53
2022-11-20T06:54:25.815Z,-0.52
2022-11-20T06:56:52.540Z,-0.47
2022-11-20T06:59:19.389Z,-0.42
2022-11-20T07:01:46.282Z,-0.49
2022-11-20T07:04:12.987Z,-0.38
2022-11-20T07:06:39.793Z,-0.36
2022-11-20T07:09:11.376Z,-0.20
2022-11-20T07:11:39.294Z,-0.10
2022-11-20T07:14:06.358Z,-0.24
2022-11-20T07:16:33.057Z,-0.38
2022-11-20T07:18:59.770Z,-0.26
2022-11-20T07:21:26.561Z,-0.28
2022-11-20T07:23:53.349Z,-0.29
2022-11-20T07:26:20.680Z,-0.28
2022-11-20T07:28:47.484Z,-0.22
2022-11-20T07:31:18.713Z,-0.24
2022-11-20T07:33:46.328Z,-0.17
2022-11-20T07:36:13.100Z,-0.13
2022-11-20T07:38:39.945Z,0.02
2022-11-20T07:41:06.791Z,0.02
2022-11-20T07:43:37.143Z,-0.16
2022-11-20T07:46:07.959Z,-0.30
2022-11-20T07:48:34.693Z,-0.09
2022-11-20T07:51:01.524Z,-0.01
2022-11-20T07:53:28.441Z,-0.05
2022-11-20T07:55:55.286Z,-0.07
2022-11-20T07:58:22.970Z,-0.04
2022-11-20T08:00:49.812Z,-0.03
2022-11-20T08:03:21.629Z,-0.03
2022-11-20T08:05:51.646Z,0.01
2022-11-20T08:08:18.585Z,0.02
2022-11-20T08:10:45.715Z,-0.26
2022-11-20T08:13:30.931Z,-0.12
2022-11-20T08:15:57.709Z,0.03
2022-11-20T08:18:31.230Z,-0.12
2022-11-20T08:20:58.905Z,0.02
2022-11-20T08:23:25.679Z,0.04
2022-11-20T08:25:52.512Z,-0.14
2022-11-20T08:28:21.725Z,0.10
2022-11-20T08:30:49.722Z,0.10
2022-11-20T08:33:18.416Z,0.03
2022-11-20T08:35:45.623Z,0.20
2022-11-20T08:38:12.615Z,0.24
2022-11-20T08:40:39.596Z,0.21
2022-11-20T08:43:06.437Z,0.30
2022-11-20T08:45:35.007Z,0.25
2022-11-20T08:48:04.115Z,0.35
2022-11-20T08:50:33.515Z,0.15
2022-11-20T08:53:06.985Z,0.18
2022-11-20T08:55:36.481Z,0.24
2022-11-20T08:58:06.706Z,0.32
2022-11-20T09:00:35.124Z,0.36
2022-11-20T09:03:02.678Z,0.42
2022-11-20T09:05:29.481Z,0.47
2022-11-20T09:08:00.024Z,0.55
2022-11-20T09:10:29.985Z,0.61
2022-11-20T09:12:56.833Z,0.65
2022-11-20T09:15:24.296Z,0.71
2022-11-20T09:18:02.068Z,0.77
2022-11-20T09:20:30.477Z,0.84
2022-11-20T09:22:58.214Z,0.91
2022-11-20T09:25:24.976Z,0.82
2022-11-20T09:28:01.012Z,0.80
2022-11-20T09:30:28.697Z,0.94
2022-11-20T09:32:55.435Z,0.80
2022-11-20T09:35:22.195Z,0.95
2022-11-20T09:37:49.171Z,0.90
2022-11-20T09:40:25.603Z,0.95
2022-11-20T09:43:18.466Z,1.04
2022-11-20T09:46:13.439Z,0.99
2022-11-20T09:49:02.140Z,1.05
2022-11-20T09:51:44.869Z,1.06
2022-11-20T09:54:11.583Z,1.10
2022-11-20T09:56:42.471Z,1.15
2022-11-20T09:59:28.674Z,1.19
2022-11-20T10:01:56.692Z,1.22
2022-11-20T10:04:23.681Z,1.33
2022-11-20T10:07:31.754Z,1.44
2022-11-20T10:10:00.355Z,1.56
2022-11-20T10:12:47.265Z,1.80
2022-11-20T10:15:39.180Z,1.96
2022-11-20T10:18:27.681Z,2.09
2022-11-20T10:21:12.805Z,2.27
2022-11-20T10:23:45.592Z,2.36
2022-11-20T10:26:36.626Z,2.34
2022-11-20T10:29:09.467Z,2.61
2022-11-20T10:31:42.511Z,2.44
2022-11-20T10:34:41.440Z,2.56
2022-11-20T10:37:15.985Z,2.16
2022-11-20T10:39:51.441Z,2.69
2022-11-20T10:42:33.074Z,2.74
2022-11-20T10:45:11.130Z,2.73
2022-11-20T10:47:37.950Z,2.99
2022-11-20T10:50:11.043Z,3.05
2022-11-20T10:52:49.886Z,3.18
2022-11-20T10:55:41.497Z,3.25
2022-11-20T10:58:53.061Z,3.32
2022-11-20T11:01:25.475Z,3.31
2022-11-20T11:03:53.621Z,3.50
2022-11-20T11:06:30.247Z,3.49
2022-11-20T11:09:04.379Z,3.61
2022-11-20T11:11:34.465Z,3.78
2022-11-20T11:14:13.526Z,3.78
2022-11-20T11:16:58.122Z,3.76
2022-11-20T11:19:25.631Z,4.00
2022-11-20T11:21:58.608Z,3.91
2022-11-20T11:24:42.306Z,3.98
2022-11-20T11:27:18.002Z,3.90
2022-11-20T11:29:46.035Z,4.01
2022-11-20T11:32:21.829Z,4.15
2022-11-20T11:35:07.785Z,4.11
2022-11-20T11:37:39.960Z,4.11
2022-11-20T11:40:27.577Z,4.17
2022-11-20T11:43:00.160Z,4.31
2022-11-20T11:45:28.648Z,4.53
2022-11-20T11:48:02.322Z,4.51
2022-11-20T11:50:30.416Z,4.60
2022-11-20T11:53:14.556Z,4.64
2022-11-20T11:55:49.335Z,4.62
2022-11-20T11:58:21.819Z,4.48
2022-11-20T12:01:06.095Z,4.37
2022-11-20T12:03:38.756Z,4.46
2022-11-20T12:06:14.825Z,4.37
2022-11-20T12:08:58.675Z,4.29
2022-11-20T12:11:30.588Z,4.20
2022-11-20T12:14:14.927Z,4.29
2022-11-20T12:16:42.411Z,4.14
2022-11-20T12:19:14.765Z,4.31
2022-11-20T12:22:05.109Z,4.29
2022-11-20T12:24:49.135Z,4.13
2022-11-20T12:27:16.143Z,4.25
2022-11-20T12:30:01.270Z,4.19
2022-11-20T12:32:59.887Z,4.22
2022-11-20T12:35:48.861Z,4.22
2022-11-20T12:38:24.642Z,4.23
2022-11-20T12:41:06.581Z,4.27
2022-11-20T12:44:02.200Z,4.17
2022-11-20T12:46:45.451Z,4.26
2022-11-20T12:49:38.631Z,4.32
2022-11-20T12:52:21.004Z,4.34
2022-11-20T12:55:06.770Z,4.22
2022-11-20T12:57:54.575Z,4.29
2022-11-20T13:00:23.603Z,4.27
2022-11-20T13:03:20.516Z,4.23
2022-11-20T13:05:52.424Z,4.17
2022-11-20T13:08:29.872Z,4.20
2022-11-20T13:10:59.658Z,4.13
2022-11-20T13:13:29.519Z,4.15
2022-11-20T13:16:18.068Z,4.17
2022-11-20T13:18:46.762Z,4.11
2022-11-20T13:21:19.521Z,4.15
2022-11-20T13:23:46.599Z,3.86
2022-11-20T13:26:25.684Z,4.11
2022-11-20T13:29:18.213Z,4.06
2022-11-20T13:31:49.766Z,4.02
2022-11-20T13:34:28.471Z,4.08
2022-11-20T13:36:58.293Z,4.04
2022-11-20T13:39:31.880Z,3.99
2022-11-20T13:42:19.957Z,3.91
2022-11-20T13:44:56.888Z,4.12
2022-11-20T13:47:26.566Z,3.92
2022-11-20T13:49:56.951Z,3.95
2022-11-20T13:52:51.114Z,4.07
2022-11-20T13:55:27.077Z,4.08
2022-11-20T13:58:12.792Z,3.94
2022-11-20T14:00:53.134Z,3.95
2022-11-20T14:03:58.488Z,3.88
2022-11-20T14:06:29.700Z,3.94
2022-11-20T14:08:57.700Z,3.81
2022-11-20T14:11:28.717Z,3.80
2022-11-20T14:13:59.869Z,3.72
2022-11-20T14:16:29.480Z,3.69
2022-11-20T14:18:58.704Z,3.43
2022-11-20T14:21:31.130Z,3.62
2022-11-20T14:24:09.066Z,3.68
2022-11-20T14:26:37.779Z,3.63
2022-11-20T14:29:06.328Z,3.58
2022-11-20T14:31:37.207Z,3.57
2022-11-20T14:34:06.716Z,3.64
2022-11-20T14:36:34.118Z,3.52
2022-11-20T14:39:01.716Z,3.70
2022-11-20T14:41:28.927Z,3.68
2022-11-20T14:43:59.216Z,3.71
2022-11-20T14:46:28.012Z,3.73
2022-11-20T14:49:02.213Z,3.69
2022-11-20T14:51:36.222Z,3.66
2022-11-20T14:54:11.511Z,3.56
2022-11-20T14:56:38.755Z,3.59
2022-11-20T14:59:06.403Z,3.77
2022-11-20T15:01:34.420Z,3.71
2022-11-20T15:04:11.753Z,3.56
2022-11-20T15:06:50.092Z,3.69
2022-11-20T15:09:19.968Z,3.47
2022-11-20T15:12:02.738Z,3.42
2022-11-20T15:14:32.367Z,3.47
2022-11-20T15:17:01.074Z,3.32
2022-11-20T15:19:28.756Z,3.63
2022-11-20T15:21:56.605Z,3.68
2022-11-20T15:24:24.324Z,3.67
2022-11-20T15:26:51.951Z,3.62
2022-11-20T15:29:20.425Z,3.52
2022-11-20T15:31:47.925Z,3.43
2022-11-20T15:34:16.965Z,3.41
2022-11-20T15:36:45.463Z,3.31
2022-11-20T15:39:13.299Z,3.30
2022-11-20T15:41:40.875Z,3.26
2022-11-20T15:44:08.330Z,3.27
2022-11-20T15:46:41.913Z,3.25
2022-11-20T15:49:14.082Z,3.21
2022-11-20T15:51:51.885Z,3.34
2022-11-20T15:54:23.250Z,3.33
2022-11-20T15:56:53.908Z,3.32
2022-11-20T15:59:21.644Z,3.21
2022-11-20T16:01:48.907Z,3.19
2022-11-20T16:04:18.076Z,3.14
2022-11-20T16:06:45.464Z,2.76
2022-11-20T16:09:13.154Z,3.18
2022-11-20T16:11:40.556Z,3.06
2022-11-20T16:14:29.231Z,3.40
2022-11-20T16:16:58.097Z,3.33
2022-11-20T16:19:26.488Z,3.19
2022-11-20T16:21:56.072Z,3.27
2022-11-20T16:24:27.547Z,3.13
2022-11-20T16:26:57.165Z,3.16
2022-11-20T16:29:24.860Z,3.16
2022-11-20T16:31:52.606Z,3.15
2022-11-20T16:34:20.507Z,3.10
2022-11-20T16:36:48.616Z,3.20
2022-11-20T16:39:21.981Z,3.20
2022-11-20T16:41:51.165Z,3.12
2022-11-20T16:44:18.685Z,3.23
2022-11-20T16:46:46.198Z,3.20
2022-11-20T16:49:15.962Z,3.40
2022-11-20T16:51:43.669Z,3.19
2022-11-20T16:54:16.332Z,3.23
2022-11-20T16:56:48.522Z,3.40
2022-11-20T16:59:16.049Z,3.21
2022-11-20T17:01:44.480Z,3.44
2022-11-20T17:04:12.390Z,3.30
2022-11-20T17:06:44.899Z,3.21
2022-11-20T17:09:13.512Z,3.42
2022-11-20T17:11:41.132Z,3.51
2022-11-20T17:14:09.984Z,3.34
2022-11-20T17:16:39.917Z,3.27
2022-11-20T17:19:07.793Z,3.34
2022-11-20T17:21:39.573Z,3.39
2022-11-20T17:24:12.554Z,3.30
2022-11-20T17:26:43.027Z,3.23
2022-11-20T17:29:17.021Z,3.16
2022-11-20T17:31:46.254Z,3.30
2022-11-20T17:34:16.668Z,3.31
2022-11-20T17:36:48.091Z,3.26
2022-11-20T17:39:17.085Z,3.26
2022-11-20T17:41:45.585Z,3.21
2022-11-20T17:44:14.405Z,3.42
2022-11-20T17:46:42.436Z,3.46
2022-11-20T17:49:11.557Z,3.38
2022-11-20T17:51:38.996Z,3.30
2022-11-20T17:54:10.662Z,3.37
2022-11-20T17:56:56.983Z,3.41
2022-11-20T17:59:24.449Z,3.45
2022-11-20T18:01:57.601Z,3.55
2022-11-20T18:04:27.570Z,3.57
2022-11-20T18:06:56.027Z,3.46
2022-11-20T18:09:24.192Z,3.62
2022-11-20T18:11:52.035Z,3.65
2022-11-20T18:14:27.094Z,3.64
2022-11-20T18:16:57.175Z,3.75
2022-11-20T18:19:32.111Z,3.72
2022-11-20T18:22:02.180Z,3.81
2022-11-20T18:24:30.130Z,3.78
2022-11-20T18:26:59.187Z,3.69
2022-11-20T18:29:27.318Z,3.80
2022-11-20T18:31:56.767Z,3.74
2022-11-20T18:34:25.455Z,3.90
2022-11-20T18:36:54.907Z,3.91
2022-11-20T18:39:23.748Z,3.86
2022-11-20T18:42:10.062Z,3.84
2022-11-20T18:45:03.433Z,4.00
2022-11-20T18:47:34.804Z,4.01
2022-11-20T18:50:02.736Z,4.00
2022-11-20T18:52:34.628Z,3.93
2022-11-20T18:55:04.417Z,3.91
2022-11-20T18:57:32.482Z,3.85
2022-11-20T19:00:07.979Z,3.97
2022-11-20T19:02:43.082Z,3.81
2022-11-20T19:05:12.783Z,3.96
2022-11-20T19:07:40.547Z,3.95
2022-11-20T19:10:08.194Z,3.90
2022-11-20T19:12:35.663Z,3.83
2022-11-20T19:15:03.716Z,3.82
2022-11-20T19:17:31.441Z,3.70
2022-11-20T19:20:00.471Z,3.83
2022-11-20T19:22:32.824Z,3.76
2022-11-20T19:25:00.302Z,3.71
2022-11-20T19:27:27.758Z,3.67
2022-11-20T19:30:03.850Z,3.78
2022-11-20T19:32:31.587Z,3.55
2022-11-20T19:35:01.308Z,3.45
2022-11-20T19:37:29.268Z,3.69
2022-11-20T19:40:00.135Z,3.74
2022-11-20T19:42:27.971Z,3.61
2022-11-20T19:44:57.938Z,3.75
2022-11-20T19:47:40.813Z,3.68
2022-11-20T19:50:13.309Z,3.63
2022-11-20T19:52:40.960Z,3.72
2022-11-20T19:55:08.929Z,3.55
2022-11-20T19:57:37.611Z,3.57
2022-11-20T20:00:05.503Z,3.55
2022-11-20T20:02:33.210Z,3.51
2022-11-20T20:05:02.454Z,3.50
2022-11-20T20:07:29.622Z,3.41
2022-11-20T20:09:58.668Z,3.34
2022-11-20T20:12:26.596Z,3.32
2022-11-20T20:14:54.290Z,3.24
2022-11-20T20:17:22.668Z,3.25
2022-11-20T20:19:51.499Z,3.18
2022-11-20T20:22:20.309Z,3.06
2022-11-20T20:24:47.881Z,3.00
2022-11-20T20:27:15.223Z,3.01
2022-11-20T20:29:42.771Z,2.95
2022-11-20T20:32:09.919Z,3.02
2022-11-20T20:34:36.951Z,3.03
2022-11-20T20:37:05.831Z,2.82
2022-11-20T20:39:33.010Z,2.92
2022-11-20T20:42:00.539Z,2.89
2022-11-20T20:44:46.100Z,2.76
2022-11-20T20:47:13.414Z,2.83
2022-11-20T20:49:43.327Z,2.74
2022-11-20T20:52:11.164Z,2.90
2022-11-20T20:54:38.988Z,2.82
2022-11-20T20:57:06.807Z,2.96
2022-11-20T20:59:34.517Z,2.85
2022-11-20T21:02:01.995Z,2.95
2022-11-20T21:04:29.588Z,2.90
2022-11-20T21:06:56.932Z,3.08
2022-11-20T21:09:24.691Z,3.00
2022-11-20T21:11:52.541Z,3.17
2022-11-20T21:14:19.864Z,3.18
2022-11-20T21:16:47.370Z,3.04
2022-11-20T21:19:15.128Z,3.10
2022-11-20T21:22:00.930Z,3.13
2022-11-20T21:24:37.839Z,3.20
2022-11-20T21:27:06.897Z,3.27
2022-11-20T21:29:33.860Z,3.26
2022-11-20T21:32:00.770Z,3.17
2022-11-20T21:34:27.873Z,3.33
2022-11-20T21:36:54.750Z,3.25
2022-11-20T21:39:24.874Z,3.28
2022-11-20T21:41:51.662Z,3.28
2022-11-20T21:44:33.807Z,3.08
2022-11-20T21:47:00.814Z,3.04
2022-11-20T21:49:27.616Z,3.21
2022-11-20T21:51:54.392Z,3.29
2022-11-20T21:54:21.402Z,3.13
2022-11-20T21:56:48.288Z,3.21
2022-11-20T21:59:15.068Z,3.20
2022-11-20T22:01:41.923Z,2.95
2022-11-20T22:04:14.072Z,2.88
2022-11-20T22:06:40.898Z,2.66
2022-11-20T22:09:07.592Z,2.59
2022-11-20T22:11:34.509Z,2.36
2022-11-20T22:14:19.891Z,2.61
2022-11-20T22:16:46.817Z,2.28
2022-11-20T22:19:16.767Z,2.14
2022-11-20T22:21:43.458Z,2.19
2022-11-20T22:24:14.831Z,2.45
2022-11-20T22:26:42.073Z,2.21
2022-11-20T22:29:14.632Z,2.25
2022-11-20T22:31:41.446Z,2.13
2022-11-20T22:34:10.849Z,2.00
2022-11-20T22:36:38.367Z,1.78
2022-11-20T22:39:06.008Z,1.83
2022-11-20T22:41:33.692Z,1.90
2022-11-20T22:44:08.143Z,1.94
2022-11-20T22:46:37.682Z,1.83
2022-11-20T22:49:07.047Z,1.94
2022-11-20T22:51:36.402Z,2.18
2022-11-20T22:54:03.740Z,2.07
2022-11-20T22:56:31.160Z,1.95
2022-11-20T22:58:58.440Z,1.89
2022-11-20T23:01:32.631Z,2.16
2022-11-20T23:04:01.841Z,1.97
2022-11-20T23:06:29.508Z,1.93
2022-11-20T23:08:56.605Z,1.99
2022-11-20T23:11:25.920Z,2.08
2022-11-20T23:13:58.276Z,2.34
2022-11-20T23:16:27.227Z,2.13
2022-11-20T23:18:58.669Z,1.89
2022-11-20T23:21:26.188Z,1.88
2022-11-20T23:23:55.430Z,1.74
2022-11-20T23:26:24.209Z,1.69
2022-11-20T23:28:53.713Z,1.55
2022-11-20T23:31:20.531Z,1.77
2022-11-20T23:33:47.379Z,1.59
2022-11-20T23:36:14.841Z,1.42
2022-11-20T23:38:41.603Z,1.25
2022-11-20T23:41:08.443Z,1.17
2022-11-20T23:43:35.472Z,1.08
2022-11-20T23:46:03.022Z,1.18
2022-11-20T23:48:32.138Z,1.01
2022-11-20T23:50:58.868Z,0.95
2022-11-20T23:53:26.009Z,1.10
2022-11-20T23:55:55.074Z,1.01
2022-11-20T23:58:23.739Z,1.11
